createdAt,value
2022-11-04T00:00:32.090Z,97
2022-11-04T00:01:32.107Z,97
2022-11-04T00:02:32.146Z,97
2022-11-04T00:03:32.079Z,97
2022-11-04T00:04:32.060Z,97
2022-11-04T00:05:32.063Z,97
2022-11-04T00:06:32.065Z,97
2022-11-04T00:07:32.251Z,97
2022-11-04T00:08:32.037Z,97
2022-11-04T00:09:32.221Z,97
2022-11-04T00:10:32.080Z,97
2022-11-04T00:11:32.078Z,97
2022-11-04T00:12:32.045Z,97
2022-11-04T00:13:32.048Z,97
2022-11-04T00:14:32.080Z,97
2022-11-04T00:15:32.169Z,97
2022-11-04T00:16:32.054Z,97
2022-11-04T00:17:32.067Z,97
2022-11-04T00:18:32.095Z,97
2022-11-04T00:19:32.167Z,97
2022-11-04T00:20:32.092Z,97
2022-11-04T00:21:32.074Z,97
2022-11-04T00:22:32.074Z,97
2022-11-04T00:23:32.097Z,97
2022-11-04T00:24:32.047Z,97
2022-11-04T00:25:32.234Z,97
2022-11-04T00:26:32.091Z,97
2022-11-04T00:27:32.071Z,97
2022-11-04T00:28:32.062Z,97
2022-11-04T00:29:32.067Z,97
2022-11-04T00:30:32.109Z,97
2022-11-04T00:31:32.101Z,97
2022-11-04T00:32:32.045Z,97
2022-11-04T00:33:32.149Z,97
2022-11-04T00:34:32.073Z,97
2022-11-04T00:35:32.069Z,97
2022-11-04T00:36:32.044Z,97
2022-11-04T00:37:32.081Z,97
2022-11-04T00:38:32.070Z,97
2022-11-04T00:39:32.064Z,97
2022-11-04T00:40:32.024Z,97
2022-11-04T00:41:32.113Z,97
2022-11-04T00:42:32.107Z,97
2022-11-04T00:43:32.110Z,97
2022-11-04T00:44:32.064Z,97
2022-11-04T00:45:32.084Z,97
2022-11-04T00:46:32.070Z,97
2022-11-04T00:47:32.104Z,97
2022-11-04T00:48:32.054Z,96
2022-11-04T00:49:32.064Z,96
2022-11-04T00:50:32.065Z,96
2022-11-04T00:51:32.064Z,96
2022-11-04T00:52:32.061Z,96
2022-11-04T00:53:32.072Z,96
2022-11-04T00:54:32.063Z,96
2022-11-04T00:55:32.252Z,96
2022-11-04T00:56:32.061Z,96
2022-11-04T00:57:32.088Z,96
2022-11-04T00:58:32.074Z,96
2022-11-04T00:59:32.078Z,96
2022-11-04T01:00:32.045Z,96
2022-11-04T01:01:32.181Z,96
2022-11-04T01:02:32.236Z,96
2022-11-04T01:03:32.082Z,96
2022-11-04T01:04:32.037Z,96
2022-11-04T01:05:32.116Z,96
2022-11-04T01:06:32.065Z,96
2022-11-04T01:07:32.104Z,96
2022-11-04T01:08:32.072Z,96
2022-11-04T01:09:32.073Z,96
2022-11-04T01:10:32.229Z,96
2022-11-04T01:11:32.054Z,96
2022-11-04T01:12:32.055Z,96
2022-11-04T01:13:32.075Z,96
2022-11-04T01:14:32.074Z,96
2022-11-04T01:15:32.042Z,96
2022-11-04T01:16:32.040Z,96
2022-11-04T01:17:32.060Z,96
2022-11-04T01:18:32.108Z,96
2022-11-04T01:19:32.305Z,96
2022-11-04T01:20:32.018Z,96
2022-11-04T01:21:32.069Z,96
2022-11-04T01:22:32.102Z,96
2022-11-04T01:23:32.092Z,96
2022-11-04T01:24:32.023Z,95
2022-11-04T01:25:32.062Z,95
2022-11-04T01:26:32.072Z,95
2022-11-04T01:27:32.061Z,95
2022-11-04T01:28:32.025Z,95
2022-11-04T01:29:32.071Z,95
2022-11-04T01:30:32.083Z,95
2022-11-04T01:31:32.068Z,95
2022-11-04T01:32:32.033Z,95
2022-11-04T01:33:32.056Z,95
2022-11-04T01:34:32.081Z,95
2022-11-04T01:35:32.065Z,95
2022-11-04T01:36:32.043Z,95
2022-11-04T01:37:32.056Z,95
2022-11-04T01:38:32.084Z,95
2022-11-04T01:39:32.077Z,96
2022-11-04T01:40:32.145Z,96
2022-11-04T01:41:32.261Z,96
2022-11-04T01:42:32.167Z,96
2022-11-04T01:43:32.207Z,96
2022-11-04T01:44:32.146Z,96
2022-11-04T01:45:32.332Z,96
2022-11-04T01:46:32.193Z,96
2022-11-04T01:47:32.193Z,96
2022-11-04T01:48:32.174Z,96
2022-11-04T01:49:32.074Z,96
2022-11-04T01:50:32.084Z,96
2022-11-04T01:51:32.075Z,96
2022-11-04T01:52:32.044Z,96
2022-11-04T01:53:32.105Z,97
2022-11-04T01:54:32.073Z,97
2022-11-04T01:55:32.058Z,97
2022-11-04T01:56:32.078Z,97
2022-11-04T01:57:32.073Z,97
2022-11-04T01:58:32.025Z,97
2022-11-04T01:59:32.054Z,97
2022-11-04T02:00:32.044Z,97
2022-11-04T02:01:32.214Z,97
2022-11-04T02:02:32.142Z,97
2022-11-04T02:03:32.064Z,97
2022-11-04T02:04:32.051Z,97
2022-11-04T02:05:32.071Z,97
2022-11-04T02:06:32.042Z,97
2022-11-04T02:07:32.052Z,97
2022-11-04T02:08:32.062Z,97
2022-11-04T02:09:32.089Z,97
2022-11-04T02:10:32.056Z,97
2022-11-04T02:11:32.051Z,97
2022-11-04T02:12:32.060Z,97
2022-11-04T02:13:32.049Z,97
2022-11-04T02:14:32.064Z,97
2022-11-04T02:15:32.100Z,97
2022-11-04T02:16:32.063Z,97
2022-11-04T02:17:32.072Z,97
2022-11-04T02:18:32.059Z,97
2022-11-04T02:19:32.037Z,97
2022-11-04T02:20:32.073Z,97
2022-11-04T02:21:32.046Z,97
2022-11-04T02:22:32.014Z,97
2022-11-04T02:23:32.044Z,97
2022-11-04T02:24:32.045Z,97
2022-11-04T02:25:32.055Z,97
2022-11-04T02:26:32.008Z,97
2022-11-04T02:27:32.061Z,97
2022-11-04T02:28:32.072Z,97
2022-11-04T02:29:32.064Z,97
2022-11-04T02:30:32.142Z,97
2022-11-04T02:31:32.060Z,97
2022-11-04T02:32:32.064Z,97
2022-11-04T02:33:32.096Z,97
2022-11-04T02:34:32.032Z,97
2022-11-04T02:35:32.093Z,97
2022-11-04T02:36:32.053Z,97
2022-11-04T02:37:32.080Z,97
2022-11-04T02:38:32.020Z,97
2022-11-04T02:39:32.042Z,97
2022-11-04T02:40:32.074Z,97
2022-11-04T02:41:32.055Z,97
2022-11-04T02:42:32.013Z,97
2022-11-04T02:43:32.060Z,97
2022-11-04T02:44:32.052Z,97
2022-11-04T02:45:32.094Z,97
2022-11-04T02:46:32.023Z,97
2022-11-04T02:47:32.055Z,97
2022-11-04T02:48:32.059Z,97
2022-11-04T02:49:32.098Z,97
2022-11-04T02:50:32.040Z,97
2022-11-04T02:51:32.055Z,97
2022-11-04T02:52:32.055Z,97
2022-11-04T02:53:32.060Z,97
2022-11-04T02:54:32.062Z,97
2022-11-04T02:55:32.005Z,97
2022-11-04T02:56:32.078Z,97
2022-11-04T02:57:32.055Z,97
2022-11-04T02:58:32.079Z,97
2022-11-04T02:59:32.029Z,97
2022-11-04T03:00:32.091Z,97
2022-11-04T03:01:32.204Z,97
2022-11-04T03:02:32.125Z,97
2022-11-04T03:03:32.144Z,97
2022-11-04T03:04:32.101Z,97
2022-11-04T03:05:32.079Z,97
2022-11-04T03:06:32.049Z,97
2022-11-04T03:07:32.011Z,97
2022-11-04T03:08:32.053Z,96
2022-11-04T03:09:32.070Z,97
2022-11-04T03:10:32.118Z,96
2022-11-04T03:11:32.045Z,96
2022-11-04T03:12:32.229Z,96
2022-11-04T03:13:32.148Z,96
2022-11-04T03:14:32.059Z,96
2022-11-04T03:15:32.051Z,96
2022-11-04T03:16:32.139Z,96
2022-11-04T03:17:32.115Z,96
2022-11-04T03:18:32.180Z,96
2022-11-04T03:19:32.027Z,96
2022-11-04T03:20:32.212Z,96
2022-11-04T03:21:32.114Z,96
2022-11-04T03:22:32.165Z,96
2022-11-04T03:23:32.129Z,96
2022-11-04T03:24:32.119Z,96
2022-11-04T03:25:32.050Z,96
2022-11-04T03:26:32.133Z,96
2022-11-04T03:27:32.161Z,96
2022-11-04T03:28:32.208Z,96
2022-11-04T03:29:32.049Z,96
2022-11-04T03:30:32.212Z,97
2022-11-04T03:31:32.157Z,97
2022-11-04T03:32:32.079Z,97
2022-11-04T03:33:32.134Z,97
2022-11-04T03:34:32.074Z,97
2022-11-04T03:35:32.032Z,97
2022-11-04T03:36:32.058Z,97
2022-11-04T03:37:32.073Z,97
2022-11-04T03:38:32.047Z,97
2022-11-04T03:39:32.019Z,97
2022-11-04T03:40:32.277Z,97
2022-11-04T03:41:32.083Z,97
2022-11-04T03:42:32.176Z,97
2022-11-04T03:43:32.106Z,97
2022-11-04T03:44:32.064Z,97
2022-11-04T03:45:32.049Z,97
2022-11-04T03:46:32.060Z,97
2022-11-04T03:47:31.989Z,97
2022-11-04T03:48:32.156Z,97
2022-11-04T03:49:32.038Z,97
2022-11-04T03:50:32.059Z,97
2022-11-04T03:51:32.032Z,97
2022-11-04T03:52:32.046Z,97
2022-11-04T03:53:32.034Z,97
2022-11-04T03:54:32.030Z,97
2022-11-04T03:55:32.076Z,97
2022-11-04T03:56:32.039Z,97
2022-11-04T03:57:32.079Z,97
2022-11-04T03:58:32.095Z,97
2022-11-04T03:59:32.146Z,97
2022-11-04T04:00:32.057Z,98
2022-11-04T04:01:32.193Z,98
2022-11-04T04:02:32.024Z,98
2022-11-04T04:03:32.034Z,98
2022-11-04T04:04:32.016Z,98
2022-11-04T04:05:32.033Z,98
2022-11-04T04:06:32.118Z,98
2022-11-04T04:07:32.019Z,98
2022-11-04T04:08:32.023Z,98
2022-11-04T04:09:32.082Z,98
2022-11-04T04:10:32.134Z,98
2022-11-04T04:11:32.060Z,98
2022-11-04T04:12:32.017Z,98
2022-11-04T04:13:32.084Z,98
2022-11-04T04:14:32.047Z,98
2022-11-04T04:15:32.055Z,98
2022-11-04T04:16:32.026Z,98
2022-11-04T04:17:32.037Z,98
2022-11-04T04:18:32.038Z,98
2022-11-04T04:19:32.044Z,98
2022-11-04T04:20:31.991Z,98
2022-11-04T04:21:32.057Z,98
2022-11-04T04:22:32.070Z,98
2022-11-04T04:23:32.068Z,98
2022-11-04T04:24:32.181Z,98
2022-11-04T04:25:32.068Z,98
2022-11-04T04:26:32.034Z,98
2022-11-04T04:27:32.295Z,98
2022-11-04T04:28:32.020Z,98
2022-11-04T04:29:32.047Z,98
2022-11-04T04:30:33.052Z,98
2022-11-04T04:31:32.047Z,98
2022-11-04T04:32:32.021Z,98
2022-11-04T04:33:32.093Z,98
2022-11-04T04:34:32.104Z,98
2022-11-04T04:35:32.154Z,98
2022-11-04T04:36:32.015Z,98
2022-11-04T04:37:32.066Z,98
2022-11-04T04:38:32.105Z,98
2022-11-04T04:39:32.045Z,98
2022-11-04T04:40:32.010Z,98
2022-11-04T04:41:32.039Z,98
2022-11-04T04:42:32.023Z,98
2022-11-04T04:43:32.027Z,98
2022-11-04T04:44:32.019Z,98
2022-11-04T04:45:32.041Z,98
2022-11-04T04:46:32.637Z,98
2022-11-04T04:47:32.034Z,98
2022-11-04T04:48:32.009Z,98
2022-11-04T04:49:32.034Z,98
2022-11-04T04:50:32.057Z,98
2022-11-04T04:51:32.008Z,98
2022-11-04T04:52:32.030Z,98
2022-11-04T04:53:32.036Z,98
2022-11-04T04:54:32.024Z,98
2022-11-04T04:55:32.028Z,98
2022-11-04T04:56:32.025Z,98
2022-11-04T04:57:32.078Z,98
2022-11-04T04:58:32.023Z,98
2022-11-04T04:59:32.034Z,98
2022-11-04T05:00:32.037Z,98
2022-11-04T05:01:32.232Z,98
2022-11-04T05:02:32.264Z,98
2022-11-04T05:03:32.044Z,98
2022-11-04T05:04:32.023Z,98
2022-11-04T05:05:32.048Z,98
2022-11-04T05:06:32.059Z,98
2022-11-04T05:07:32.056Z,98
2022-11-04T05:08:32.066Z,98
2022-11-04T05:09:32.073Z,98
2022-11-04T05:10:32.109Z,98
2022-11-04T05:11:32.172Z,98
2022-11-04T05:12:32.007Z,98
2022-11-04T05:13:32.056Z,98
2022-11-04T05:14:32.068Z,98
2022-11-04T05:15:32.051Z,98
2022-11-04T05:16:35.390Z,98
2022-11-04T05:17:32.088Z,98
2022-11-04T05:18:32.035Z,98
2022-11-04T05:19:32.058Z,98
2022-11-04T05:20:32.031Z,98
2022-11-04T05:21:32.047Z,98
2022-11-04T05:22:32.122Z,98
2022-11-04T05:23:32.055Z,98
2022-11-04T05:24:32.023Z,98
2022-11-04T05:25:32.059Z,98
2022-11-04T05:26:32.017Z,98
2022-11-04T05:27:32.048Z,99
2022-11-04T05:28:32.025Z,98
2022-11-04T05:29:32.054Z,98
2022-11-04T05:30:32.039Z,99
2022-11-04T05:31:32.103Z,99
2022-11-04T05:32:32.021Z,99
2022-11-04T05:33:32.053Z,99
2022-11-04T05:34:32.034Z,99
2022-11-04T05:35:32.017Z,99
2022-11-04T05:36:32.014Z,99
2022-11-04T05:37:32.070Z,99
2022-11-04T05:38:32.020Z,99
2022-11-04T05:39:32.051Z,99
2022-11-04T05:40:32.027Z,99
2022-11-04T05:41:32.034Z,99
2022-11-04T05:42:32.045Z,99
2022-11-04T05:43:32.059Z,99
2022-11-04T05:44:32.506Z,99
2022-11-04T05:45:32.046Z,99
2022-11-04T05:46:32.035Z,99
2022-11-04T05:47:32.040Z,99
2022-11-04T05:48:36.355Z,99
2022-11-04T05:49:32.047Z,99
2022-11-04T05:50:32.013Z,99
2022-11-04T05:51:32.054Z,99
2022-11-04T05:52:32.002Z,99
2022-11-04T05:53:32.045Z,99
2022-11-04T05:54:32.025Z,99
2022-11-04T05:55:32.042Z,99
2022-11-04T05:56:32.046Z,99
2022-11-04T05:57:32.034Z,99
2022-11-04T05:58:32.065Z,99
2022-11-04T05:59:32.058Z,99
2022-11-04T06:00:32.056Z,99
2022-11-04T06:01:32.099Z,99
2022-11-04T06:02:32.094Z,99
2022-11-04T06:03:32.053Z,99
2022-11-04T06:04:32.127Z,99
2022-11-04T06:05:32.018Z,99
2022-11-04T06:06:32.042Z,99
2022-11-04T06:07:32.041Z,99
2022-11-04T06:08:32.048Z,99
2022-11-04T06:09:32.037Z,99
2022-11-04T06:10:32.047Z,99
2022-11-04T06:11:32.034Z,99
2022-11-04T06:12:32.185Z,99
2022-11-04T06:13:32.013Z,99
2022-11-04T06:14:32.070Z,99
2022-11-04T06:15:32.042Z,99
2022-11-04T06:16:32.115Z,99
2022-11-04T06:17:32.021Z,99
2022-11-04T06:18:32.029Z,99
2022-11-04T06:19:32.043Z,99
2022-11-04T06:20:32.028Z,99
2022-11-04T06:21:32.091Z,99
2022-11-04T06:22:32.049Z,99
2022-11-04T06:23:32.047Z,98
2022-11-04T06:24:32.040Z,98
2022-11-04T06:25:32.044Z,99
2022-11-04T06:26:32.037Z,99
2022-11-04T06:27:32.046Z,98
2022-11-04T06:28:32.021Z,98
2022-11-04T06:29:32.009Z,98
2022-11-04T06:30:32.035Z,98
2022-11-04T06:31:32.012Z,98
2022-11-04T06:32:32.015Z,98
2022-11-04T06:33:36.533Z,98
2022-11-04T06:34:32.037Z,98
2022-11-04T06:35:32.017Z,98
2022-11-04T06:36:32.120Z,98
2022-11-04T06:37:32.051Z,98
2022-11-04T06:38:32.048Z,98
2022-11-04T06:39:32.006Z,98
2022-11-04T06:40:32.034Z,98
2022-11-04T06:41:32.026Z,98
2022-11-04T06:42:32.087Z,98
2022-11-04T06:43:32.181Z,98
2022-11-04T06:44:32.052Z,98
2022-11-04T06:45:32.136Z,98
2022-11-04T06:46:32.056Z,98
2022-11-04T06:47:32.046Z,98
2022-11-04T06:48:32.013Z,98
2022-11-04T06:49:32.047Z,98
2022-11-04T06:50:32.045Z,98
2022-11-04T06:51:32.156Z,98
2022-11-04T06:52:32.141Z,98
2022-11-04T06:53:32.009Z,97
2022-11-04T06:54:32.076Z,97
2022-11-04T06:55:32.010Z,97
2022-11-04T06:56:32.067Z,97
2022-11-04T06:57:32.143Z,97
2022-11-04T06:58:32.046Z,97
2022-11-04T06:59:32.010Z,97
2022-11-04T07:00:32.039Z,97
2022-11-04T07:01:32.125Z,96
2022-11-04T07:02:32.246Z,96
2022-11-04T07:03:32.211Z,96
2022-11-04T07:04:32.090Z,96
2022-11-04T07:05:32.005Z,96
2022-11-04T07:06:32.039Z,96
2022-11-04T07:07:32.017Z,96
2022-11-04T07:08:32.012Z,95
2022-11-04T07:09:32.113Z,95
2022-11-04T07:10:32.043Z,95
2022-11-04T07:11:32.032Z,95
2022-11-04T07:12:32.068Z,95
2022-11-04T07:13:31.999Z,95
2022-11-04T07:14:32.035Z,95
2022-11-04T07:15:32.162Z,95
2022-11-04T07:16:32.034Z,95
2022-11-04T07:17:32.008Z,95
2022-11-04T07:18:32.042Z,95
2022-11-04T07:19:32.088Z,94
2022-11-04T07:20:32.042Z,94
2022-11-04T07:21:32.021Z,94
2022-11-04T07:22:32.064Z,94
2022-11-04T07:23:32.010Z,94
2022-11-04T07:24:32.043Z,94
2022-11-04T07:25:31.994Z,94
2022-11-04T07:26:32.036Z,94
2022-11-04T07:27:32.056Z,94
2022-11-04T07:28:32.117Z,94
2022-11-04T07:29:32.012Z,94
2022-11-04T07:30:32.046Z,94
2022-11-04T07:31:32.031Z,94
2022-11-04T07:32:32.154Z,94
2022-11-04T07:33:32.035Z,93
2022-11-04T07:34:32.172Z,93
2022-11-04T07:35:32.029Z,93
2022-11-04T07:36:32.033Z,93
2022-11-04T07:37:32.032Z,93
2022-11-04T07:38:32.028Z,93
2022-11-04T07:39:32.047Z,93
2022-11-04T07:40:32.152Z,93
2022-11-04T07:41:32.068Z,93
2022-11-04T07:42:32.086Z,93
2022-11-04T07:43:31.990Z,93
2022-11-04T07:44:31.999Z,93
2022-11-04T07:45:32.040Z,93
2022-11-04T07:46:32.033Z,93
2022-11-04T07:47:32.000Z,93
2022-11-04T07:48:32.063Z,93
2022-11-04T07:49:32.163Z,93
2022-11-04T07:50:32.099Z,93
2022-11-04T07:51:32.022Z,93
2022-11-04T07:52:32.077Z,93
2022-11-04T07:53:32.017Z,93
2022-11-04T07:54:32.066Z,93
2022-11-04T07:55:32.054Z,93
2022-11-04T07:56:32.016Z,93
2022-11-04T07:57:32.047Z,92
2022-11-04T07:58:32.088Z,92
2022-11-04T07:59:32.052Z,92
2022-11-04T08:00:32.037Z,92
2022-11-04T08:01:32.085Z,92
2022-11-04T08:02:35.201Z,92
2022-11-04T08:03:32.202Z,92
2022-11-04T08:04:32.065Z,92
2022-11-04T08:05:32.003Z,92
2022-11-04T08:06:32.063Z,91
2022-11-04T08:07:32.047Z,91
2022-11-04T08:08:32.056Z,91
2022-11-04T08:09:32.058Z,91
2022-11-04T08:10:32.158Z,91
2022-11-04T08:11:32.026Z,91
2022-11-04T08:12:32.062Z,90
2022-11-04T08:13:32.014Z,90
2022-11-04T08:14:32.045Z,90
2022-11-04T08:15:32.051Z,90
2022-11-04T08:16:34.433Z,90
2022-11-04T08:17:32.066Z,90
2022-11-04T08:18:32.142Z,89
2022-11-04T08:19:32.060Z,89
2022-11-04T08:20:31.990Z,88
2022-11-04T08:21:32.030Z,88
2022-11-04T08:22:33.181Z,88
2022-11-04T08:23:32.023Z,88
2022-11-04T08:24:31.997Z,88
2022-11-04T08:25:32.079Z,88
2022-11-04T08:26:32.059Z,87
2022-11-04T08:27:32.035Z,87
2022-11-04T08:28:32.005Z,87
2022-11-04T08:29:32.010Z,87
2022-11-04T08:30:32.058Z,86
2022-11-04T08:31:32.022Z,86
2022-11-04T08:32:32.004Z,86
2022-11-04T08:33:32.017Z,85
2022-11-04T08:34:32.020Z,85
2022-11-04T08:35:34.830Z,85
2022-11-04T08:36:32.018Z,85
2022-11-04T08:37:32.050Z,86
2022-11-04T08:38:32.053Z,86
2022-11-04T08:39:32.111Z,86
2022-11-04T08:40:31.988Z,86
2022-11-04T08:41:32.091Z,86
2022-11-04T08:42:32.080Z,86
2022-11-04T08:43:32.021Z,86
2022-11-04T08:44:31.994Z,86
2022-11-04T08:45:33.758Z,87
2022-11-04T08:46:32.029Z,87
2022-11-04T08:47:32.092Z,87
2022-11-04T08:48:32.038Z,86
2022-11-04T08:49:32.032Z,87
2022-11-04T08:50:32.041Z,86
2022-11-04T08:51:31.992Z,86
2022-11-04T08:52:31.976Z,86
2022-11-04T08:53:32.120Z,86
2022-11-04T08:54:32.054Z,86
2022-11-04T08:55:32.011Z,86
2022-11-04T08:56:32.063Z,86
2022-11-04T08:57:32.038Z,86
2022-11-04T08:58:32.049Z,86
2022-11-04T08:59:32.004Z,86
2022-11-04T09:00:32.028Z,86
2022-11-04T09:01:35.685Z,86
2022-11-04T09:02:32.026Z,85
2022-11-04T09:03:32.111Z,85
2022-11-04T09:04:32.034Z,85
2022-11-04T09:05:32.036Z,85
2022-11-04T09:06:32.019Z,85
2022-11-04T09:07:32.005Z,85
2022-11-04T09:08:32.028Z,85
2022-11-04T09:09:32.028Z,85
2022-11-04T09:10:32.049Z,84
2022-11-04T09:11:32.025Z,84
2022-11-04T09:12:32.001Z,84
2022-11-04T09:13:36.818Z,84
2022-11-04T09:14:32.037Z,84
2022-11-04T09:15:32.003Z,84
2022-11-04T09:16:32.044Z,84
2022-11-04T09:17:32.137Z,84
2022-11-04T09:18:32.010Z,84
2022-11-04T09:19:32.233Z,84
2022-11-04T09:20:32.047Z,85
2022-11-04T09:21:32.068Z,84
2022-11-04T09:22:32.199Z,84
2022-11-04T09:23:31.998Z,84
2022-11-04T09:24:32.053Z,85
2022-11-04T09:25:32.043Z,85
2022-11-04T09:26:32.027Z,85
2022-11-04T09:27:31.987Z,85
2022-11-04T09:28:32.012Z,85
2022-11-04T09:29:32.008Z,85
2022-11-04T09:30:32.008Z,85
2022-11-04T09:31:32.009Z,85
2022-11-04T09:32:32.044Z,85
2022-11-04T09:33:32.028Z,86
2022-11-04T09:34:32.078Z,86
2022-11-04T09:35:31.972Z,86
2022-11-04T09:36:32.017Z,86
2022-11-04T09:37:32.011Z,85
2022-11-04T09:38:32.104Z,85
2022-11-04T09:39:32.009Z,85
2022-11-04T09:40:32.050Z,85
2022-11-04T09:41:32.021Z,85
2022-11-04T09:42:32.039Z,85
2022-11-04T09:43:31.985Z,85
2022-11-04T09:44:32.200Z,85
2022-11-04T09:45:32.001Z,84
2022-11-04T09:46:32.049Z,84
2022-11-04T09:47:31.981Z,84
2022-11-04T09:48:32.003Z,83
2022-11-04T09:49:32.014Z,83
2022-11-04T09:50:32.061Z,83
2022-11-04T09:51:53.247Z,83
2022-11-04T09:52:32.060Z,82
2022-11-04T09:53:32.029Z,83
2022-11-04T09:54:32.010Z,83
2022-11-04T09:55:32.003Z,83
2022-11-04T09:56:32.047Z,83
2022-11-04T09:57:32.049Z,83
2022-11-04T09:58:32.010Z,83
2022-11-04T09:59:32.024Z,83
2022-11-04T10:00:31.995Z,83
2022-11-04T10:01:32.167Z,83
2022-11-04T10:02:32.134Z,83
2022-11-04T10:03:32.009Z,83
2022-11-04T10:04:32.001Z,83
2022-11-04T10:05:31.974Z,83
2022-11-04T10:06:32.040Z,82
2022-11-04T10:07:32.106Z,82
2022-11-04T10:08:37.602Z,82
2022-11-04T10:09:32.003Z,82
2022-11-04T10:10:32.023Z,82
2022-11-04T10:11:32.035Z,82
2022-11-04T10:12:32.012Z,81
2022-11-04T10:13:31.969Z,81
2022-11-04T10:14:35.493Z,82
2022-11-04T10:15:32.023Z,82
2022-11-04T10:16:32.194Z,82
2022-11-04T10:17:32.007Z,82
2022-11-04T10:18:32.026Z,82
2022-11-04T10:19:31.998Z,81
2022-11-04T10:20:32.023Z,81
2022-11-04T10:21:31.982Z,81
2022-11-04T10:22:32.156Z,80
2022-11-04T10:23:32.043Z,80
2022-11-04T10:24:32.027Z,80
2022-11-04T10:25:31.993Z,81
2022-11-04T10:26:32.001Z,80
2022-11-04T10:27:32.025Z,81
2022-11-04T10:28:32.010Z,81
2022-11-04T10:29:31.982Z,81
2022-11-04T10:30:32.030Z,81
2022-11-04T10:31:31.996Z,81
2022-11-04T10:32:32.008Z,81
2022-11-04T10:33:31.982Z,80
2022-11-04T10:34:32.082Z,80
2022-11-04T10:35:32.006Z,80
2022-11-04T10:36:32.034Z,80
2022-11-04T10:37:32.022Z,80
2022-11-04T10:38:32.003Z,80
2022-11-04T10:39:31.999Z,80
2022-11-04T10:40:32.195Z,80
2022-11-04T10:41:31.999Z,80
2022-11-04T10:42:32.049Z,79
2022-11-04T10:43:32.119Z,79
2022-11-04T10:44:32.064Z,79
2022-11-04T10:45:32.004Z,80
2022-11-04T10:46:37.164Z,80
2022-11-04T10:47:32.030Z,80
2022-11-04T10:48:32.001Z,80
2022-11-04T10:49:32.008Z,80
2022-11-04T10:50:32.194Z,80
2022-11-04T10:51:31.990Z,80
2022-11-04T10:52:32.046Z,80
2022-11-04T10:53:32.125Z,80
2022-11-04T10:54:32.090Z,80
2022-11-04T10:55:32.004Z,79
2022-11-04T10:56:32.103Z,79
2022-11-04T10:57:32.011Z,79
2022-11-04T10:58:31.989Z,79
2022-11-04T10:59:32.009Z,79
2022-11-04T11:00:32.219Z,80
2022-11-04T11:01:32.170Z,79
2022-11-04T11:02:32.097Z,79
2022-11-04T11:03:32.117Z,79
2022-11-04T11:04:32.151Z,79
2022-11-04T11:05:32.045Z,79
2022-11-04T11:06:31.987Z,79
2022-11-04T11:07:32.036Z,79
2022-11-04T11:08:32.084Z,79
2022-11-04T11:09:32.008Z,78
2022-11-04T11:10:31.977Z,79
2022-11-04T11:11:32.023Z,79
2022-11-04T11:12:51.019Z,79
2022-11-04T11:13:32.080Z,79
2022-11-04T11:14:32.021Z,79
2022-11-04T11:15:32.010Z,79
2022-11-04T11:16:32.101Z,79
2022-11-04T11:17:32.032Z,79
2022-11-04T11:18:31.998Z,79
2022-11-04T11:19:32.030Z,80
2022-11-04T11:20:32.015Z,80
2022-11-04T11:21:32.125Z,80
2022-11-04T11:22:32.024Z,80
2022-11-04T11:23:32.077Z,80
2022-11-04T11:24:32.015Z,80
2022-11-04T11:25:32.022Z,80
2022-11-04T11:26:31.983Z,80
2022-11-04T11:27:31.972Z,80
2022-11-04T11:28:31.987Z,79
2022-11-04T11:29:32.005Z,80
2022-11-04T11:30:32.029Z,80
2022-11-04T11:31:32.026Z,80
2022-11-04T11:32:32.078Z,80
2022-11-04T11:33:32.103Z,80
2022-11-04T11:34:31.964Z,80
2022-11-04T11:35:31.989Z,80
2022-11-04T11:36:32.011Z,79
2022-11-04T11:37:32.016Z,79
2022-11-04T11:38:31.995Z,79
2022-11-04T11:39:32.030Z,79
2022-11-04T11:40:32.062Z,79
2022-11-04T11:41:32.018Z,79
2022-11-04T11:42:32.103Z,80
2022-11-04T11:43:31.997Z,80
2022-11-04T11:44:32.017Z,80
2022-11-04T11:45:32.121Z,80
2022-11-04T11:46:31.974Z,80
2022-11-04T11:47:32.041Z,81
2022-11-04T11:48:32.100Z,81
2022-11-04T11:49:32.012Z,81
2022-11-04T11:50:31.987Z,81
2022-11-04T11:51:32.599Z,81
2022-11-04T11:52:32.029Z,81
2022-11-04T11:53:32.028Z,81
2022-11-04T11:54:32.239Z,81
2022-11-04T11:55:32.004Z,81
2022-11-04T11:56:51.785Z,81
2022-11-04T11:57:32.505Z,81
2022-11-04T12:01:32.113Z,81
2022-11-04T12:02:32.140Z,82
2022-11-04T12:06:32.594Z,82
2022-11-04T12:09:34.458Z,81
2022-11-04T12:10:49.904Z,81
2022-11-04T12:11:32.096Z,82
2022-11-04T12:12:32.171Z,82
2022-11-04T12:13:32.222Z,82
2022-11-04T12:14:32.014Z,82
2022-11-04T12:15:32.007Z,82
2022-11-04T12:16:32.094Z,82
2022-11-04T12:17:32.029Z,82
2022-11-04T12:18:31.991Z,82
2022-11-04T12:19:32.005Z,82
2022-11-04T12:20:32.003Z,82
2022-11-04T12:21:32.016Z,82
2022-11-04T12:22:31.961Z,82
2022-11-04T12:23:32.034Z,82
2022-11-04T12:24:31.984Z,82
2022-11-04T12:25:32.003Z,82
2022-11-04T12:26:31.977Z,82
2022-11-04T12:27:31.973Z,82
2022-11-04T12:28:32.048Z,82
2022-11-04T12:29:32.072Z,82
2022-11-04T12:30:37.215Z,83
2022-11-04T12:31:32.019Z,83
2022-11-04T12:32:32.002Z,83
2022-11-04T12:33:31.986Z,83
2022-11-04T12:34:32.062Z,82
2022-11-04T12:35:32.042Z,83
2022-11-04T12:36:32.113Z,83
2022-11-04T12:37:32.119Z,83
2022-11-04T12:38:32.015Z,82
2022-11-04T12:39:32.039Z,82
2022-11-04T12:40:32.059Z,82
2022-11-04T12:41:52.443Z,82
2022-11-04T12:42:33.232Z,83
2022-11-04T12:43:32.068Z,82
2022-11-04T12:44:32.017Z,83
2022-11-04T12:45:31.987Z,82
2022-11-04T12:46:31.945Z,82
2022-11-04T12:47:32.024Z,82
2022-11-04T12:48:32.010Z,82
2022-11-04T12:49:32.033Z,81
2022-11-04T12:50:32.063Z,81
2022-11-04T12:51:32.038Z,81
2022-11-04T12:52:32.010Z,81
2022-11-04T12:53:32.011Z,81
2022-11-04T12:54:32.222Z,81
2022-11-04T12:55:32.011Z,81
2022-11-04T12:56:31.966Z,81
2022-11-04T12:57:32.027Z,81
2022-11-04T12:58:31.989Z,81
2022-11-04T12:59:32.014Z,81
2022-11-04T13:00:31.984Z,81
2022-11-04T13:01:32.119Z,82
2022-11-04T13:02:32.126Z,82
2022-11-04T13:03:32.139Z,82
2022-11-04T13:04:31.993Z,82
2022-11-04T13:05:31.977Z,82
2022-11-04T13:06:31.997Z,83
2022-11-04T13:07:32.024Z,83
2022-11-04T13:08:31.995Z,83
2022-11-04T13:09:32.289Z,83
2022-11-04T13:10:32.027Z,83
2022-11-04T13:11:32.115Z,84
2022-11-04T13:12:31.980Z,84
2022-11-04T13:13:32.068Z,84
2022-11-04T13:14:32.017Z,84
2022-11-04T13:15:31.996Z,84
2022-11-04T13:16:31.992Z,84
2022-11-04T13:17:32.012Z,84
2022-11-04T13:18:31.998Z,84
2022-11-04T13:19:32.141Z,84
2022-11-04T13:20:31.977Z,84
2022-11-04T13:21:31.987Z,84
2022-11-04T13:22:32.004Z,84
2022-11-04T13:23:32.009Z,84
2022-11-04T13:24:32.007Z,84
2022-11-04T13:25:32.003Z,84
2022-11-04T13:26:31.991Z,84
2022-11-04T13:27:31.999Z,84
2022-11-04T13:28:31.988Z,84
2022-11-04T13:29:32.015Z,84
2022-11-04T13:30:32.007Z,84
2022-11-04T13:31:32.002Z,84
2022-11-04T13:32:32.017Z,84
2022-11-04T13:33:32.063Z,84
2022-11-04T13:34:32.024Z,84
2022-11-04T13:35:31.999Z,84
2022-11-04T13:36:32.005Z,84
2022-11-04T13:37:31.996Z,85
2022-11-04T13:38:32.438Z,85
2022-11-04T13:39:32.100Z,85
2022-11-04T13:40:31.994Z,85
2022-11-04T13:41:32.042Z,85
2022-11-04T13:42:32.286Z,85
2022-11-04T13:43:32.015Z,85
2022-11-04T13:44:31.977Z,85
2022-11-04T13:45:32.008Z,85
2022-11-04T13:46:32.015Z,85
2022-11-04T13:47:32.011Z,85
2022-11-04T13:48:31.970Z,85
2022-11-04T13:49:32.009Z,86
2022-11-04T13:50:31.991Z,86
2022-11-04T13:51:32.002Z,86
2022-11-04T13:52:32.001Z,86
2022-11-04T13:53:31.940Z,86
2022-11-04T13:54:32.022Z,86
2022-11-04T13:55:32.097Z,86
2022-11-04T13:56:33.728Z,86
2022-11-04T13:57:31.943Z,86
2022-11-04T13:58:31.993Z,86
2022-11-04T13:59:32.160Z,86
2022-11-04T14:00:32.012Z,86
2022-11-04T14:01:32.021Z,86
2022-11-04T14:02:32.014Z,86
2022-11-04T14:03:31.978Z,87
2022-11-04T14:04:31.979Z,87
2022-11-04T14:05:31.956Z,87
2022-11-04T14:06:32.010Z,87
2022-11-04T14:07:31.995Z,87
2022-11-04T14:08:31.994Z,87
2022-11-04T14:09:31.976Z,87
2022-11-04T14:10:31.984Z,87
2022-11-04T14:11:36.326Z,87
2022-11-04T14:12:32.048Z,87
2022-11-04T14:13:31.965Z,87
2022-11-04T14:14:31.989Z,87
2022-11-04T14:15:31.963Z,87
2022-11-04T14:16:31.990Z,87
2022-11-04T14:17:31.993Z,87
2022-11-04T14:18:32.007Z,87
2022-11-04T14:19:32.010Z,87
2022-11-04T14:20:31.995Z,87
2022-11-04T14:21:31.983Z,87
2022-11-04T14:22:32.005Z,87
2022-11-04T14:23:31.989Z,87